Cusick, WA

8:33 AM PST on December 07, 2016 (GMT -0800)
Bead Lake | | Change Station
Active Advisory: Winter Storm Watch Active Notice: Local Storm Report

Elev 2910 ft 48.31 °N, 117.13 °W | Updated 52 seconds ago

Overcast
Overcast
20.2 °F
Feels Like 20 °F
N
0.0
Wind Variable Wind from ESE

Today
High -- | Low -- °F
--% Chance of Precip.
Yesterday
High -- | Low -- °F
Precip. -- in
Pressure 30.50 in
Visibility 10.0 miles
Clouds Few 3700 ft
Overcast 6500 ft
Windchill 20 °F
Dew Point 13 °F
Humidity 74%
Rainfall 0.00 in
Snow Depth Not available.
7:26 AM 3:54 PM
First Quarter, 54% visible
METAR KDEW 071553Z AUTO 04005KT 10SM FEW037 OVC065 M05/M11 A3039 RMK AO2 SLP327 T10501106
Pressure 30.50 in
Visibility 10.0 miles
Clouds Few 3700 ft
Overcast 6500 ft
Windchill 20 °F
Dew Point 13 °F
Humidity 74%
Rainfall 0.00 in
Snow Depth Not available.
7:26 AM 3:54 PM
First Quarter, 54% visible
METAR KDEW 071553Z AUTO 04005KT 10SM FEW037 OVC065 M05/M11 A3039 RMK AO2 SLP327 T10501106

10-Day Weather Forecast

Almanac

Astronomy

Dec. 07, 2016 Rise Set
Actual Time
Civil Twilight
Nautical Twilight
Astronomical Twilight
Moon
Length of Visible Light
Length of Day
Tomorrow will be .
, % of the Moon is Illuminated

Today's Extremes

State Highs State Lows

Community

WunderPhotos

Upload Photos

1,956,132 photos uploaded!

WunderBlog® & News

Nearby

Air Quality

  Air Quality AQ Index Pollutant
Not available.

Snow Depth

Station Depth Elevation

Earthquake Activity

City Distance Mag. Time & Date
Minimum magnitude displayed is 2.5.

Coastal Water Temperatures

Place Temperature

Stations

Nearby Weather Stations

Station Location Temp. Windchill Dew Point Humidity Wind Precip. Elev Updated Type
                   

Watches & Warnings

Winter Storm Watch
Issued: 2:37 AM PST Dec. 7, 2016 – National Weather Service

... Winter Storm Watch now in effect from Thursday evening through
Friday afternoon...

* locations... Republic, Inchelium, Wauconda, Chesaw Road,
Highway 20 Wauconda Summit, Boulder Creek Road, Sherman Pass,
Sandpoint, Athol, Bonners Ferry, Priest River, Eastport,
schweitzer Mountain Road, Colville, Deer Park, Chewelah,
Newport, Kettle Falls, Springdale-hunters Road, Orin-Rice
Road, and flowery trail Road.

* Snow accumulations... 3 to 6 inches of snow in the valleys and
in the mountains 8 to 14 inches.

* Timing... light snow will begin in the northern mountains Thursday
evening. Snow will increase Thursday night before decreasing
Friday evening. Another round of snow is possible Saturday.

* Impacts... heavy snow accumulation on roads will make travel
difficult and treacherous especially approaching mountain
passes.

* Web page: for a detailed view of the hazard area visit
http://www.Wrh.NOAA.Gov/map/?Wfo=otx.

Precautionary/preparedness actions...

A Winter Storm Watch means there is a potential for significant
snow accumulations that may impact travel. Continue to monitor
the latest forecasts.